Time;durP1;ratioP1;P1;durP2;ratioP2;P2;SDS_P1;SDS_P2;PMS_P1;PMS_P2;Temp;Humidity;BMP_temperature;BMP_pressure;BME280_temperature;BME280_humidity;BME280_pressure;Samples;Min_cycle;Max_cycle;Signal;HPM_P1;HPM_P2
2023/10/09 00:04:20;;;;;;;8.10;5.20;;;;;;;13.23;100.00;99724.30;137214;1276;23130;-81
2023/10/09 00:07:23;;;;;;;9.80;5.80;;;;;;;13.49;100.00;99716.48;137036;1276;22564;-84
2023/10/09 00:10:35;;;;;;;8.00;5.10;;;;;;;13.63;100.00;99704.60;137183;1276;22169;-83
2023/10/09 00:13:37;;;;;;;9.00;6.00;;;;;;;13.71;100.00;99697.54;137149;1276;23182;-81
2023/10/09 00:16:46;;;;;;;12.30;5.40;;;;;;;13.82;100.00;99693.13;137170;1276;22197;-83
2023/10/09 00:19:51;;;;;;;11.40;6.50;;;;;;;13.96;100.00;99692.98;137149;1276;22433;-83
2023/10/09 00:22:56;;;;;;;8.30;5.70;;;;;;;14.10;100.00;99686.66;137205;1276;22155;-82
2023/10/09 00:29:21;;;;;;;12.20;5.40;;;;;;;14.37;100.00;99685.89;137033;1276;22199;-82
2023/10/09 00:32:26;;;;;;;13.40;5.80;;;;;;;14.43;100.00;99683.70;137117;1276;22258;-83
2023/10/09 00:35:39;;;;;;;10.50;5.50;;;;;;;14.45;100.00;99679.52;137075;1276;22636;-82
2023/10/09 00:38:45;;;;;;;11.40;5.50;;;;;;;14.46;100.00;99670.25;137148;1276;22560;-84
2023/10/09 00:41:48;;;;;;;8.40;5.60;;;;;;;14.34;100.00;99665.90;136559;1276;22560;-84
2023/10/09 00:44:51;;;;;;;12.80;6.50;;;;;;;14.19;100.00;99661.55;136743;1276;22695;-83
2023/10/09 00:47:56;;;;;;;10.80;6.80;;;;;;;13.93;100.00;99653.91;137244;1276;22175;-82
2023/10/09 00:51:00;;;;;;;7.60;5.80;;;;;;;13.63;100.00;99639.20;136856;1276;22567;-81
2023/10/09 00:54:07;;;;;;;8.50;6.20;;;;;;;13.51;100.00;99638.16;136947;1276;22374;-81
2023/10/09 00:57:13;;;;;;;8.00;5.60;;;;;;;13.40;100.00;99639.25;137166;1276;22522;-81
2023/10/09 01:00:32;;;;;;;11.60;6.30;;;;;;;13.32;100.00;99636.16;137006;1276;22562;-85
2023/10/09 01:03:35;;;;;;;8.90;5.70;;;;;;;13.24;100.00;99632.39;136918;1276;22548;-81
2023/10/09 01:06:43;;;;;;;8.20;5.70;;;;;;;13.18;100.00;99627.76;137040;1276;22552;-81
2023/10/09 01:09:45;;;;;;;9.40;6.60;;;;;;;13.00;100.00;99620.82;137142;1276;22380;-82
2023/10/09 01:12:54;;;;;;;8.70;6.00;;;;;;;12.91;100.00;99614.20;137046;1268;22380;-82
2023/10/09 01:15:58;;;;;;;9.00;5.60;;;;;;;12.81;100.00;99613.01;136950;1276;22292;-82
2023/10/09 01:19:06;;;;;;;7.10;5.60;;;;;;;12.77;100.00;99613.65;137278;1276;22194;-82
2023/10/09 01:22:14;;;;;;;10.00;5.90;;;;;;;12.71;100.00;99615.30;137115;1276;22226;-82
2023/10/09 01:25:17;;;;;;;7.90;5.50;;;;;;;12.82;100.00;99618.61;137060;1276;22198;-83
2023/10/09 01:28:19;;;;;;;8.80;5.60;;;;;;;12.95;100.00;99619.16;137177;1276;22184;-81
2023/10/09 01:31:21;;;;;;;8.60;5.70;;;;;;;13.17;100.00;99606.41;137179;1276;22189;-81
2023/10/09 01:34:26;;;;;;;7.30;5.70;;;;;;;13.46;100.00;99603.65;136882;1276;22641;-81
2023/10/09 01:37:29;;;;;;;8.50;5.40;;;;;;;13.74;100.00;99602.41;137077;1276;22291;-82
2023/10/09 01:40:37;;;;;;;7.20;5.50;;;;;;;13.90;100.00;99607.16;137217;1276;22547;-81
2023/10/09 01:43:44;;;;;;;8.70;6.40;;;;;;;13.87;100.00;99609.04;136907;1276;22226;-82
2023/10/09 01:46:47;;;;;;;9.80;6.50;;;;;;;14.25;100.00;99599.98;137079;1276;22118;-81
2023/10/09 01:49:53;;;;;;;7.40;5.40;;;;;;;14.59;100.00;99603.98;137176;1276;22548;-80
2023/10/09 01:53:00;;;;;;;10.70;5.90;;;;;;;14.43;92.56;99612.95;136981;1276;22456;-82
2023/10/09 01:56:03;;;;;;;9.20;5.40;;;;;;;12.70;59.18;99615.23;137346;1276;22163;-80
2023/10/09 01:59:09;;;;;;;10.50;5.50;;;;;;;10.47;59.60;99617.64;137122;1276;202832;-82
2023/10/09 02:02:30;;;;;;;9.20;6.20;;;;;;;9.51;71.46;99606.55;137200;1276;23102;-82
2023/10/09 02:05:36;;;;;;;8.50;5.60;;;;;;;9.30;65.29;99606.82;137076;1276;22130;-81
2023/10/09 02:08:38;;;;;;;10.40;6.10;;;;;;;8.13;65.17;99603.94;137160;1276;22635;-80
2023/10/09 02:11:43;;;;;;;10.50;6.30;;;;;;;7.17;66.61;99602.05;137325;1276;22971;-82
2023/10/09 02:14:45;;;;;;;9.90;4.70;;;;;;;6.44;68.45;99601.63;137001;1276;23050;-82
2023/10/09 02:18:00;;;;;;;27.70;6.80;;;;;;;5.89;69.89;99592.94;137112;1276;22640;-83
2023/10/09 02:21:12;;;;;;;8.00;5.40;;;;;;;5.40;71.77;99600.43;137244;1276;22439;-81
2023/10/09 02:24:27;;;;;;;17.50;5.10;;;;;;;5.02;73.32;99594.91;137063;1276;22252;-82
2023/10/09 02:27:53;;;;;;;;;;;;;;;4.71;74.80;99596.23;136978;1276;22534;-82
2023/10/09 02:31:00;;;;;;;13.10;5.00;;;;;;;4.47;78.79;99586.47;136906;1276;22375;-81
2023/10/09 02:34:05;;;;;;;15.80;5.10;;;;;;;6.39;92.59;99569.82;137123;1276;22275;-81
2023/10/09 02:37:12;;;;;;;8.80;5.10;;;;;;;9.05;86.07;99558.78;136904;1276;22764;-81
2023/10/09 02:40:23;;;;;;;14.30;5.80;;;;;;;10.83;79.66;99552.37;136963;1276;22157;-81
2023/10/09 02:43:26;;;;;;;8.60;4.70;;;;;;;11.96;73.71;99548.23;136994;1276;23040;-79
2023/10/09 02:46:34;;;;;;;8.90;5.30;;;;;;;12.77;71.17;99542.58;136926;1276;22319;-81
2023/10/09 02:49:38;;;;;;;8.90;4.70;;;;;;;13.39;68.43;99542.55;136948;1276;22140;-81
2023/10/09 02:52:41;;;;;;;16.90;5.00;;;;;;;13.48;63.30;99545.08;137229;1276;22238;-81
2023/10/09 02:55:53;;;;;;;15.10;5.10;;;;;;;11.59;59.29;99546.23;137178;1276;22622;-82
2023/10/09 02:59:05;;;;;;;8.40;4.70;;;;;;;9.51;60.53;99558.91;137210;1276;22155;-82
2023/10/09 03:02:08;;;;;;;7.50;5.50;;;;;;;7.95;63.02;99565.71;137208;1265;22173;-79
2023/10/09 03:05:12;;;;;;;7.40;5.00;;;;;;;6.93;65.51;99565.15;137150;1276;22562;-80
2023/10/09 03:08:16;;;;;;;8.60;5.60;;;;;;;6.20;67.78;99563.47;137338;1268;22760;-82
2023/10/09 03:11:19;;;;;;;8.60;5.10;;;;;;;5.66;69.90;99554.46;137371;1276;22387;-83
2023/10/09 03:14:26;;;;;;;7.80;5.40;;;;;;;5.25;71.60;99550.24;137289;1272;22186;-81
2023/10/09 03:17:28;;;;;;;11.50;5.60;;;;;;;4.93;73.43;99561.89;137348;1276;22263;-84
2023/10/09 03:20:31;;;;;;;8.70;5.10;;;;;;;4.66;74.91;99559.44;137331;1261;22288;-81
2023/10/09 03:23:34;;;;;;;8.80;5.10;;;;;;;4.40;76.16;99552.36;137324;1276;22703;-82
2023/10/09 03:26:36;;;;;;;5.90;4.40;;;;;;;4.23;77.37;99547.55;137254;1276;22242;-81
2023/10/09 03:29:39;;;;;;;7.20;4.60;;;;;;;4.07;78.25;99554.55;137345;1276;22253;-82
2023/10/09 03:32:44;;;;;;;6.80;4.80;;;;;;;3.96;79.02;99556.41;137284;1276;22207;-81
2023/10/09 03:35:47;;;;;;;7.30;5.20;;;;;;;3.84;79.62;99555.14;137220;1276;22413;-81
2023/10/09 03:38:53;;;;;;;10.00;6.00;;;;;;;3.72;80.32;99544.20;137174;1276;22547;-82
2023/10/09 03:41:58;;;;;;;11.30;5.80;;;;;;;3.66;80.88;99536.50;137244;1276;22537;-80
2023/10/09 03:45:01;;;;;;;85.80;9.90;;;;;;;3.59;81.10;99530.64;137121;1276;22294;-82
2023/10/09 03:48:10;;;;;;;9.40;5.00;;;;;;;3.53;81.54;99525.85;137250;1276;22684;-81
2023/10/09 03:51:15;;;;;;;18.10;6.20;;;;;;;3.47;82.08;99523.31;137106;1276;22207;-79
2023/10/09 03:54:20;;;;;;;9.10;5.10;;;;;;;3.40;82.54;99526.71;137038;1276;22194;-82
2023/10/09 03:57:25;;;;;;;9.50;5.20;;;;;;;3.36;83.02;99523.21;137110;1276;22244;-82
2023/10/09 04:00:28;;;;;;;9.50;5.30;;;;;;;3.32;83.38;99521.11;137318;1276;22294;-83
2023/10/09 04:03:31;;;;;;;9.70;4.90;;;;;;;3.26;83.53;99518.05;137285;1276;22236;-80
2023/10/09 04:06:33;;;;;;;8.70;4.70;;;;;;;3.20;83.91;99519.66;137340;1276;22288;-81
2023/10/09 04:09:39;;;;;;;10.60;5.60;;;;;;;3.18;84.57;99524.55;137321;1276;22226;-80
2023/10/09 04:12:42;;;;;;;14.90;5.30;;;;;;;3.19;85.01;99516.17;137335;1276;22066;-80
2023/10/09 04:15:46;;;;;;;10.70;5.40;;;;;;;3.22;85.30;99513.75;137333;1276;22254;-82
2023/10/09 04:18:49;;;;;;;15.00;6.00;;;;;;;3.24;85.54;99506.59;137020;1276;22533;-82
2023/10/09 04:21:58;;;;;;;58.50;7.30;;;;;;;3.21;85.68;99509.05;136868;1275;22401;-81
2023/10/09 04:25:07;;;;;;;11.40;5.60;;;;;;;3.21;86.21;99503.19;137090;1276;22561;-84
2023/10/09 04:28:18;;;;;;;6.80;4.10;;;;;;;3.21;86.56;99490.83;137069;1276;24240;-82
2023/10/09 04:31:31;;;;;;;8.40;5.10;;;;;;;3.18;86.79;99484.46;136654;1270;22548;-82
2023/10/09 04:34:36;;;;;;;8.40;5.20;;;;;;;3.23;87.53;99474.07;136736;1276;22676;-81
2023/10/09 04:37:39;;;;;;;9.10;5.10;;;;;;;3.26;87.60;99479.70;136864;1276;22225;-83
2023/10/09 04:40:59;;;;;;;9.10;5.50;;;;;;;3.28;87.96;99481.00;136800;1276;22240;-82
2023/10/09 04:44:18;;;;;;;58.50;6.40;;;;;;;3.32;88.01;99485.52;137198;1276;22159;-81
2023/10/09 04:47:25;;;;;;;15.30;5.20;;;;;;;3.27;88.28;99463.42;137201;1276;22256;-83
2023/10/09 04:51:20;;;;;;;67.10;7.70;;;;;;;3.23;88.94;99448.45;137289;1276;22197;-82
2023/10/09 04:54:33;;;;;;;9.10;5.90;;;;;;;3.22;89.35;99435.82;137265;1276;22190;-79
2023/10/09 04:57:45;;;;;;;6.80;4.60;;;;;;;3.25;89.81;99434.62;137297;1276;22356;-80
2023/10/09 05:01:02;;;;;;;6.80;4.60;;;;;;;3.29;89.99;99419.69;137299;1276;22643;-83
2023/10/09 05:04:26;;;;;;;8.90;5.50;;;;;;;3.34;90.42;99415.10;137306;1276;22163;-83
2023/10/09 05:07:54;;;;;;;11.00;5.30;;;;;;;3.41;90.67;99407.70;137338;1276;22177;-80
2023/10/09 05:11:05;;;;;;;130.00;64.00;;;;;;;3.48;90.94;99400.48;137326;1276;22236;-81
2023/10/09 05:14:13;;;;;;;40.90;19.20;;;;;;;3.58;91.27;99397.36;137207;1276;22229;-83
2023/10/09 05:17:23;;;;;;;14.10;7.10;;;;;;;3.65;90.95;99400.80;137223;1276;22212;-81
2023/10/09 05:23:48;;;;;;;11.10;5.40;;;;;;;3.72;91.18;99373.10;137231;1276;22219;-83
2023/10/09 05:27:12;;;;;;;9.10;5.30;;;;;;;3.74;91.30;99365.80;137202;1272;22202;-80
2023/10/09 05:30:25;;;;;;;7.80;4.90;;;;;;;3.79;91.38;99362.40;137127;1276;22308;-80
2023/10/09 05:33:33;;;;;;;11.10;4.90;;;;;;;3.82;91.66;99357.56;137207;1276;22225;-83
2023/10/09 05:36:36;;;;;;;14.10;6.20;;;;;;;3.87;92.23;99349.19;137233;1276;22158;-80
2023/10/09 05:39:41;;;;;;;9.60;6.80;;;;;;;3.95;92.74;99346.79;137198;1265;22707;-82
2023/10/09 05:42:44;;;;;;;29.40;7.70;;;;;;;4.02;92.98;99346.26;137105;1276;22216;-82
2023/10/09 05:49:24;;;;;;;11.90;7.10;;;;;;;4.25;93.19;99355.73;136744;1280;22278;-81
2023/10/09 05:52:56;;;;;;;16.80;7.70;;;;;;;4.33;93.46;99351.63;136758;1280;22272;-84
2023/10/09 06:06:07;;;;;;;77.90;11.30;;;;;;;4.71;93.28;99356.23;135976;1290;22292;-81
2023/10/09 06:12:49;;;;;;;17.30;9.10;;;;;;;4.90;93.33;99354.98;136375;1286;22270;-84
2023/10/09 06:19:26;;;;;;;27.40;8.80;;;;;;;5.10;93.73;99354.79;136272;1286;22239;-79
2023/10/09 06:25:51;;;;;;;90.30;14.60;;;;;;;5.35;94.13;99363.61;136634;1281;22875;-81
2023/10/09 06:35:31;;;;;;;68.40;12.50;;;;;;;5.71;93.63;99354.69;136736;1276;22311;-81
2023/10/09 06:38:51;;;;;;;19.10;10.00;;;;;;;5.80;93.42;99348.81;137182;1276;23021;-80
2023/10/09 06:42:09;;;;;;;17.00;9.90;;;;;;;5.87;93.56;99354.08;137211;1276;22194;-81
2023/10/09 06:45:15;;;;;;;37.80;9.70;;;;;;;5.96;93.66;99348.42;137193;1276;22158;-82
2023/10/09 06:51:43;;;;;;;35.50;9.50;;;;;;;6.01;93.22;99345.67;137184;1276;22236;-80
2023/10/09 06:54:51;;;;;;;20.90;11.60;;;;;;;6.02;93.19;99337.79;137254;1276;22155;-82
2023/10/09 06:57:54;;;;;;;33.70;12.10;;;;;;;6.08;93.38;99334.71;137255;1276;22742;-81
2023/10/09 07:01:19;;;;;;;32.80;13.90;;;;;;;6.15;93.48;99334.85;136547;1264;24408;-80
2023/10/09 07:04:45;;;;;;;63.90;15.10;;;;;;;6.26;93.24;99331.61;136748;1276;22510;-80
2023/10/09 07:07:54;;;;;;;38.10;15.60;;;;;;;6.36;92.95;99324.90;136735;1276;23437;-81
2023/10/09 07:11:20;;;;;;;48.40;17.20;;;;;;;6.46;92.38;99326.98;136284;1276;22675;-80
2023/10/09 07:15:01;;;;;;;36.00;16.60;;;;;;;6.57;91.72;99335.31;137294;1276;22088;-79
2023/10/09 07:17:55;;;;;;;32.60;15.00;;;;;;;6.66;89.13;99333.39;137378;1276;22312;-79
2023/10/09 07:21:10;;;;;;;102.20;50.80;;;;;;;6.70;88.66;99341.84;137399;1276;22282;-80
2023/10/09 07:24:17;;;;;;;90.50;45.10;;;;;;;6.76;88.27;99339.81;137351;1276;22191;-80
2023/10/09 07:27:43;;;;;;;74.60;41.00;;;;;;;6.83;88.15;99345.58;137267;1276;22336;-80
2023/10/09 07:30:42;;;;;;;64.20;35.90;;;;;;;6.92;87.79;99328.76;137260;1276;22177;-79
2023/10/09 07:34:06;;;;;;;42.90;23.90;;;;;;;7.04;87.67;99340.95;137213;1276;22279;-81
2023/10/09 07:37:09;;;;;;;27.20;14.90;;;;;;;7.15;86.92;99323.34;137212;1276;22046;-82
2023/10/09 07:40:14;;;;;;;22.40;13.40;;;;;;;7.24;86.50;99325.70;137178;1276;22215;-82
2023/10/09 07:43:17;;;;;;;25.10;13.00;;;;;;;7.35;86.12;99331.23;137184;1276;22256;-80
2023/10/09 07:46:32;;;;;;;21.60;11.30;;;;;;;7.42;86.05;99335.98;137230;1276;22300;-81
2023/10/09 07:49:37;;;;;;;16.20;9.50;;;;;;;7.53;86.05;99342.40;137197;1276;22266;-81
2023/10/09 07:52:44;;;;;;;20.70;10.70;;;;;;;7.59;85.55;99343.80;137239;1276;22207;-79
2023/10/09 07:55:54;;;;;;;17.60;8.60;;;;;;;7.67;86.38;99337.14;137239;1276;22229;-81
2023/10/09 07:59:00;;;;;;;15.10;7.30;;;;;;;7.79;86.24;99334.74;137238;1276;22229;-81
2023/10/09 08:02:03;;;;;;;14.00;7.80;;;;;;;7.91;86.14;99326.46;137195;1276;22255;-82
2023/10/09 08:05:06;;;;;;;11.50;6.70;;;;;;;8.02;86.52;99327.98;137225;1262;22270;-81
2023/10/09 08:15:20;;;;;;;15.30;6.40;;;;;;;8.16;87.00;99328.06;137078;1276;22192;-80
2023/10/09 08:18:28;;;;;;;11.80;6.30;;;;;;;8.23;87.15;99338.14;137039;1276;22231;-82
2023/10/09 08:21:43;;;;;;;7.70;5.10;;;;;;;8.26;87.42;99331.30;137264;1276;22224;-82
2023/10/09 08:24:55;;;;;;;12.70;5.70;;;;;;;8.26;87.17;99334.41;137290;1276;22799;-82
2023/10/09 08:27:58;;;;;;;7.40;5.20;;;;;;;8.26;87.62;99337.35;137236;1276;22215;-82
2023/10/09 08:31:18;;;;;;;6.90;4.30;;;;;;;8.27;87.68;99345.55;137225;1276;22225;-81
2023/10/09 08:34:27;;;;;;;5.70;3.70;;;;;;;8.33;87.34;99340.88;137220;1276;22291;-79
2023/10/09 08:37:30;;;;;;;6.80;3.70;;;;;;;8.39;86.96;99341.58;137234;1276;22087;-81
2023/10/09 08:40:32;;;;;;;4.00;3.10;;;;;;;8.42;86.19;99336.11;137239;1261;22197;-81
2023/10/09 08:43:36;;;;;;;5.50;3.10;;;;;;;8.44;86.49;99322.13;137239;1276;22219;-80
2023/10/09 08:46:39;;;;;;;4.30;3.30;;;;;;;8.41;86.05;99310.42;137222;1276;22189;-81
2023/10/09 08:49:42;;;;;;;3.60;2.50;;;;;;;8.28;85.51;99315.22;137179;1276;22480;-80
2023/10/09 08:52:44;;;;;;;8.80;4.20;;;;;;;8.12;85.78;99311.13;137141;1276;22284;-81
2023/10/09 08:55:48;;;;;;;5.90;4.20;;;;;;;8.12;86.78;99306.10;137185;1276;22649;-81
2023/10/09 08:58:52;;;;;;;4.30;3.00;;;;;;;8.13;86.60;99312.89;137087;1276;22261;-81
2023/10/09 09:01:58;;;;;;;8.90;3.30;;;;;;;8.06;85.84;99296.72;137121;1276;22226;-81
2023/10/09 09:05:02;;;;;;;7.00;3.20;;;;;;;8.02;86.53;99291.59;137141;1272;22230;-81
2023/10/09 09:08:04;;;;;;;6.90;3.50;;;;;;;8.04;86.36;99289.75;137146;1276;22170;-81
2023/10/09 09:11:12;;;;;;;4.50;2.80;;;;;;;8.17;86.28;99291.50;137144;1276;22166;-81
2023/10/09 09:14:18;;;;;;;7.40;3.70;;;;;;;8.24;85.67;99296.73;137139;1276;22574;-82
2023/10/09 09:17:27;;;;;;;5.90;3.50;;;;;;;8.22;85.76;99308.63;137166;1276;22166;-80
2023/10/09 09:20:36;;;;;;;6.40;3.40;;;;;;;8.19;85.85;99328.14;137127;1276;22289;-82
2023/10/09 09:23:40;;;;;;;8.40;3.90;;;;;;;8.23;86.37;99327.74;137143;1276;22259;-83
2023/10/09 09:26:45;;;;;;;7.10;4.30;;;;;;;8.38;86.98;99322.98;137176;1276;22252;-82
2023/10/09 09:29:55;;;;;;;8.40;4.20;;;;;;;8.52;86.77;99319.40;137147;1276;22176;-81
2023/10/09 09:36:14;;;;;;;6.10;3.40;;;;;;;8.67;86.45;99310.79;137208;1276;22234;-82
2023/10/09 09:39:19;;;;;;;5.10;3.30;;;;;;;8.77;86.07;99312.81;137227;1276;22127;-82
2023/10/09 09:42:25;;;;;;;4.70;3.80;;;;;;;8.85;86.17;99308.17;137196;1276;22219;-82
2023/10/09 09:45:28;;;;;;;4.60;3.30;;;;;;;8.99;85.82;99303.85;137206;1276;22267;-81
2023/10/09 09:48:32;;;;;;;36.70;22.70;;;;;;;9.09;85.71;99300.79;137203;1276;22141;-80
2023/10/09 09:51:34;;;;;;;8.70;5.80;;;;;;;9.19;85.90;99296.36;137168;1276;22810;-80
2023/10/09 09:54:37;;;;;;;6.00;3.80;;;;;;;9.35;84.53;99284.39;137148;1260;22236;-79
2023/10/09 09:57:40;;;;;;;6.00;3.70;;;;;;;9.51;84.28;99274.73;137144;1276;22712;-80
2023/10/09 10:00:45;;;;;;;5.50;3.70;;;;;;;9.69;83.03;99278.09;137108;1276;22210;-80
2023/10/09 10:03:48;;;;;;;5.20;3.60;;;;;;;9.74;83.12;99289.68;137243;1276;22643;-81
2023/10/09 10:06:54;;;;;;;6.90;4.20;;;;;;;9.77;81.66;99290.78;136996;1276;22589;-81
2023/10/09 10:09:59;;;;;;;7.00;4.20;;;;;;;9.67;82.08;99270.58;137188;1276;22691;-81
2023/10/09 10:13:02;;;;;;;6.20;4.00;;;;;;;9.69;81.38;99254.81;137274;1276;22239;-82
2023/10/09 10:16:09;;;;;;;7.30;4.50;;;;;;;9.69;81.32;99247.52;136844;1276;22224;-81
2023/10/09 10:22:37;;;;;;;7.70;4.40;;;;;;;10.00;82.54;99228.69;137220;1276;23123;-80
2023/10/09 10:25:42;;;;;;;6.50;4.70;;;;;;;10.35;82.50;99221.42;137240;1276;22328;-80
2023/10/09 10:28:48;;;;;;;7.20;4.80;;;;;;;10.53;80.93;99211.16;137207;1276;22823;-81
2023/10/09 10:31:50;;;;;;;6.10;4.40;;;;;;;10.69;79.72;99202.90;137153;1276;22222;-80
2023/10/09 10:34:55;;;;;;;6.50;4.10;;;;;;;10.71;78.59;99202.94;137158;1276;22343;-79
2023/10/09 10:38:11;;;;;;;6.40;4.00;;;;;;;10.80;77.45;99199.96;137050;1276;22993;-82
2023/10/09 10:41:16;;;;;;;10.30;5.70;;;;;;;10.80;77.81;99187.78;137060;1276;23104;-81
2023/10/09 10:47:35;;;;;;;8.30;4.70;;;;;;;10.97;78.12;99188.39;137016;1276;22195;-81
2023/10/09 10:50:37;;;;;;;15.20;4.50;;;;;;;10.92;77.42;99190.76;137199;1276;22375;-81
2023/10/09 10:53:48;;;;;;;5.30;3.60;;;;;;;10.87;77.19;99179.34;137296;1273;22245;-80
2023/10/09 10:56:52;;;;;;;10.70;5.00;;;;;;;10.92;77.49;99170.72;137296;1276;22226;-79
2023/10/09 11:00:05;;;;;;;9.10;5.10;;;;;;;10.94;77.27;99157.69;137282;1276;22758;-80
2023/10/09 11:03:19;;;;;;;7.60;4.60;;;;;;;10.93;76.55;99152.46;137330;1276;22075;-79
2023/10/09 11:06:21;;;;;;;6.00;4.00;;;;;;;10.99;76.78;99138.45;137305;1276;21996;-80
2023/10/09 11:09:35;;;;;;;7.60;4.10;;;;;;;11.05;76.74;99126.52;137290;1276;22204;-80
2023/10/09 11:12:39;;;;;;;5.90;3.80;;;;;;;11.04;75.54;99118.14;137171;1273;22223;-80
2023/10/09 11:15:46;;;;;;;5.30;3.90;;;;;;;10.97;75.66;99114.91;137131;1276;22249;-81
2023/10/09 11:18:48;;;;;;;6.70;4.10;;;;;;;10.88;75.55;99105.38;137117;1276;22246;-80
2023/10/09 11:21:58;;;;;;;5.40;4.30;;;;;;;10.87;76.56;99098.58;137152;1276;22245;-76
2023/10/09 11:25:12;;;;;;;12.60;3.70;;;;;;;10.96;75.65;99082.15;137072;1276;22118;-79
2023/10/09 11:28:27;;;;;;;12.90;6.30;;;;;;;11.02;75.33;99069.36;137090;1276;22687;-81
2023/10/09 11:31:33;;;;;;;11.20;5.50;;;;;;;11.05;75.42;99076.89;137156;1276;22236;-80
2023/10/09 11:34:37;;;;;;;15.40;9.70;;;;;;;11.00;75.23;99078.39;137127;1276;22240;-81
2023/10/09 11:37:42;;;;;;;14.60;8.20;;;;;;;10.94;75.32;99083.70;137104;1276;22656;-81
2023/10/09 11:41:05;;;;;;;16.50;8.40;;;;;;;10.84;74.87;99088.60;137162;1276;22209;-80
2023/10/09 11:44:18;;;;;;;22.70;7.90;;;;;;;10.65;74.62;99090.77;137172;1276;22272;-80
2023/10/09 11:47:32;;;;;;;20.90;15.20;;;;;;;10.53;75.46;99095.09;137155;1276;22304;-80
2023/10/09 11:50:37;;;;;;;7.00;5.00;;;;;;;10.43;75.54;99098.21;137154;1276;22507;-79
2023/10/09 11:53:43;;;;;;;7.90;4.20;;;;;;;10.27;75.28;99095.67;137167;1276;22219;-80
2023/10/09 11:56:45;;;;;;;5.50;4.00;;;;;;;10.18;76.47;99093.23;137152;1276;22398;-79
2023/10/09 11:59:52;;;;;;;12.20;4.40;;;;;;;10.12;76.82;99091.05;137117;1276;22731;-78
2023/10/09 12:02:54;;;;;;;4.60;3.00;;;;;;;10.05;76.77;99097.68;137198;1276;22162;-80
2023/10/09 12:06:04;;;;;;;6.90;3.20;;;;;;;9.94;76.92;99105.66;137200;1272;22548;-81
2023/10/09 12:09:06;;;;;;;11.60;4.10;;;;;;;9.91;77.14;99108.73;137139;1276;22104;-79
2023/10/09 12:12:09;;;;;;;7.10;3.40;;;;;;;9.90;77.43;99099.86;137103;1276;22632;-79
2023/10/09 12:15:17;;;;;;;17.50;3.20;;;;;;;9.87;76.89;99089.54;137112;1276;22351;-79
2023/10/09 12:18:19;;;;;;;5.40;2.60;;;;;;;9.85;76.99;99084.13;137166;1273;22725;-79
2023/10/09 12:21:23;;;;;;;7.70;2.70;;;;;;;9.79;76.20;99085.23;137137;1276;22229;-79
2023/10/09 12:24:26;;;;;;;3.70;2.80;;;;;;;9.72;76.80;99099.52;137132;1276;22202;-79
2023/10/09 12:27:29;;;;;;;9.30;2.80;;;;;;;9.72;77.12;99096.03;137092;1276;22484;-80
2023/10/09 12:30:39;;;;;;;3.60;2.50;;;;;;;9.70;77.44;99089.23;137155;1276;22137;-79
2023/10/09 12:33:42;;;;;;;6.90;3.20;;;;;;;9.81;80.10;99086.11;137201;1276;22348;-81
2023/10/09 12:36:44;;;;;;;23.80;16.60;;;;;;;10.33;78.35;99087.25;137238;1276;22175;-80
2023/10/09 12:39:47;;;;;;;9.20;5.20;;;;;;;10.33;77.01;99082.73;137235;1276;22115;-77
2023/10/09 12:42:50;;;;;;;49.80;6.50;;;;;;;10.33;76.28;99076.30;137285;1276;22210;-79
2023/10/09 12:45:56;;;;;;;17.40;2.70;;;;;;;10.34;76.38;99071.27;137271;1276;22325;-79
2023/10/09 12:49:01;;;;;;;7.10;2.50;;;;;;;10.32;75.89;99076.96;137222;1276;22315;-80
2023/10/09 12:52:03;;;;;;;4.00;2.40;;;;;;;10.21;76.22;99079.91;137203;1276;22539;-79
2023/10/09 12:55:09;;;;;;;5.30;2.40;;;;;;;10.11;76.59;99081.80;137206;1276;22332;-77
2023/10/09 12:58:14;;;;;;;2.90;1.90;;;;;;;10.03;77.94;99083.58;137149;1276;22990;-80
2023/10/09 13:01:19;;;;;;;7.60;2.70;;;;;;;9.92;77.25;99075.55;137210;1276;22195;-78
2023/10/09 13:04:22;;;;;;;5.40;2.70;;;;;;;9.80;77.83;99076.20;137253;1276;22206;-82
2023/10/09 13:07:25;;;;;;;4.00;2.70;;;;;;;9.73;78.92;99074.85;137258;1276;22683;-80
2023/10/09 13:10:31;;;;;;;6.80;2.60;;;;;;;9.63;80.26;99076.23;137234;1270;22682;-80
2023/10/09 13:13:43;;;;;;;2.90;2.40;;;;;;;9.53;81.08;99077.23;137236;1276;22294;-81
2023/10/09 13:16:45;;;;;;;35.20;22.50;;;;;;;9.47;81.57;99068.24;137207;1276;22229;-80
2023/10/09 13:19:48;;;;;;;8.20;6.40;;;;;;;9.40;81.84;99067.23;137212;1276;22337;-79
2023/10/09 13:22:52;;;;;;;14.70;6.00;;;;;;;9.35;82.34;99061.73;137234;1266;22291;-80
2023/10/09 13:25:55;;;;;;;6.40;4.10;;;;;;;9.32;83.43;99060.30;137268;1276;22283;-80
2023/10/09 13:28:57;;;;;;;3.50;3.10;;;;;;;9.32;83.84;99060.81;137236;1276;22248;-79
2023/10/09 13:32:02;;;;;;;3.70;2.50;;;;;;;9.33;84.09;99054.75;137270;1268;22199;-78
2023/10/09 13:35:05;;;;;;;3.70;2.50;;;;;;;9.33;84.60;99054.23;137252;1276;22212;-78
2023/10/09 13:38:09;;;;;;;3.00;2.50;;;;;;;9.34;84.83;99046.96;137145;1276;22475;-80
2023/10/09 13:41:14;;;;;;;5.10;2.20;;;;;;;9.30;85.00;99030.55;137159;1276;22278;-80
2023/10/09 13:44:16;;;;;;;;;;;;;;;9.36;85.40;99030.50;136679;1276;22545;-80
2023/10/09 13:47:28;;;;;;;2.60;2.40;;;;;;;9.37;85.67;99037.65;136912;1266;22212;-79
2023/10/09 13:50:32;;;;;;;4.10;2.40;;;;;;;9.30;85.92;99034.02;137285;1276;22208;-80
2023/10/09 13:53:35;;;;;;;2.80;2.40;;;;;;;9.12;86.06;99030.54;137242;1276;22195;-79
2023/10/09 13:56:39;;;;;;;4.40;2.50;;;;;;;9.01;86.46;99033.62;137061;1276;177924;-80
2023/10/09 13:59:48;;;;;;;2.80;2.30;;;;;;;8.97;86.94;99030.59;137211;1276;22925;-79
2023/10/09 14:02:54;;;;;;;3.80;2.60;;;;;;;8.95;87.39;99032.61;137161;1276;22639;-80
2023/10/09 14:06:10;;;;;;;3.70;2.70;;;;;;;8.93;88.09;99040.40;136922;1276;22231;-76
2023/10/09 14:09:27;;;;;;;6.20;2.90;;;;;;;8.87;87.34;99050.16;137214;1276;22302;-79
2023/10/09 14:12:30;;;;;;;3.40;2.30;;;;;;;8.79;87.79;99059.34;137260;1276;22201;-80
2023/10/09 14:15:33;;;;;;;4.30;2.10;;;;;;;8.70;88.21;99051.16;137231;1276;22647;-80
2023/10/09 14:18:36;;;;;;;5.80;2.10;;;;;;;8.64;88.28;99049.44;137230;1276;22256;-80
2023/10/09 14:21:40;;;;;;;3.50;2.20;;;;;;;8.57;88.38;99048.58;137254;1276;22224;-81
2023/10/09 14:24:44;;;;;;;4.10;2.40;;;;;;;8.49;88.85;99042.66;137286;1276;22297;-79
2023/10/09 14:27:48;;;;;;;4.00;2.30;;;;;;;8.46;90.22;99045.73;137289;1276;22266;-80
2023/10/09 14:30:56;;;;;;;2.90;2.50;;;;;;;8.47;90.95;99047.66;137307;1276;22291;-79
2023/10/09 14:34:02;;;;;;;3.20;2.30;;;;;;;8.42;90.29;99049.79;137286;1261;22326;-80
2023/10/09 14:37:06;;;;;;;3.30;2.60;;;;;;;8.38;90.83;99051.42;136716;1276;22566;-80
2023/10/09 14:40:12;;;;;;;5.30;2.60;;;;;;;8.35;91.02;99048.23;137292;1276;22211;-80
2023/10/09 14:43:19;;;;;;;4.90;2.60;;;;;;;8.29;91.01;99039.92;137183;1276;22539;-80
2023/10/09 14:46:26;;;;;;;2.90;2.60;;;;;;;8.30;91.69;99033.69;136718;1276;22598;-79
2023/10/09 14:49:34;;;;;;;70.40;45.20;;;;;;;8.28;92.10;99025.16;136896;1276;24302;-81
2023/10/09 14:52:38;;;;;;;9.60;5.40;;;;;;;8.27;92.37;99025.50;136535;1276;22225;-80
2023/10/09 14:55:45;;;;;;;5.60;3.80;;;;;;;8.26;92.65;99033.77;136710;1276;22398;-79
2023/10/09 14:58:49;;;;;;;5.10;3.30;;;;;;;8.28;92.88;99027.42;137303;1276;22637;-81
2023/10/09 15:01:53;;;;;;;4.70;3.60;;;;;;;8.31;93.16;99020.20;137258;1276;22316;-80
2023/10/09 15:04:56;;;;;;;4.80;3.50;;;;;;;8.31;93.26;99015.34;137275;1276;22279;-79
2023/10/09 15:07:58;;;;;;;5.50;3.70;;;;;;;8.28;93.48;99008.16;137128;1276;22511;-80
2023/10/09 15:11:01;;;;;;;5.80;3.70;;;;;;;8.26;93.60;99002.58;137238;1276;22231;-83
2023/10/09 15:14:04;;;;;;;6.50;3.70;;;;;;;8.27;94.30;98998.77;136727;1276;22256;-80
2023/10/09 15:17:07;;;;;;;7.80;3.30;;;;;;;8.27;94.01;98994.44;137126;1276;22223;-79
2023/10/09 15:20:13;;;;;;;8.50;4.20;;;;;;;8.22;94.19;98993.11;136854;1260;22598;-80
2023/10/09 15:23:15;;;;;;;7.60;3.70;;;;;;;8.18;94.48;98995.96;137194;1276;22449;-82
2023/10/09 15:26:19;;;;;;;6.60;4.20;;;;;;;8.14;94.54;98994.98;137227;1276;22287;-79
2023/10/09 15:29:23;;;;;;;4.40;3.80;;;;;;;8.08;94.51;98999.36;136774;1276;22111;-81
2023/10/09 15:32:25;;;;;;;6.50;3.90;;;;;;;8.06;94.74;99002.25;137258;1276;22314;-79